Time;durP1;ratioP1;P1;durP2;ratioP2;P2;SDS_P1;SDS_P2;PMS_P1;PMS_P2;Temp;Humidity;BMP_temperature;BMP_pressure;BME280_temperature;BME280_humidity;BME280_pressure;Samples;Min_cycle;Max_cycle;Signal;HPM_P1;HPM_P2
2021/05/13 00:02:13;;;;;;;54.17;28.20;;;10.10;99.90;;;;;;5051996;28;20021;-75
2021/05/13 00:04:38;;;;;;;64.03;25.27;;;10.20;99.90;;;;;;5034076;28;20032;-73
2021/05/13 00:07:04;;;;;;;120.90;27.15;;;10.20;99.90;;;;;;5033788;28;20022;-75
2021/05/13 00:09:31;;;;;;;39.47;26.30;;;10.20;99.90;;;;;;5051707;28;20031;-74
2021/05/13 00:12:00;;;;;;;40.03;27.75;;;10.00;99.90;;;;;;5051796;28;20021;-75
2021/05/13 00:14:25;;;;;;;29.10;23.65;;;10.00;99.90;;;;;;5051864;28;20017;-73
2021/05/13 00:16:51;;;;;;;29.85;24.48;;;10.00;99.90;;;;;;5033887;28;20591;-75
2021/05/13 00:19:16;;;;;;;29.13;22.85;;;10.10;99.90;;;;;;5051596;28;20439;-75
2021/05/13 00:21:44;;;;;;;33.95;24.48;;;10.10;99.90;;;;;;5052033;28;20048;-73
2021/05/13 00:24:11;;;;;;;36.30;25.65;;;10.10;99.90;;;;;;5050588;28;20044;-74
2021/05/13 00:26:41;;;;;;;27.40;22.02;;;9.90;99.90;;;;;;5051605;28;20029;-74
2021/05/13 00:29:12;;;;;;;28.85;22.40;;;10.00;99.90;;;;;;5051550;28;20017;-74
2021/05/13 00:31:38;;;;;;;27.92;22.55;;;9.90;99.90;;;;;;5033699;28;20391;-75
2021/05/13 00:34:04;;;;;;;25.27;21.30;;;10.00;99.90;;;;;;5051657;28;20033;-75
2021/05/13 00:36:31;;;;;;;24.90;21.50;;;10.00;99.90;;;;;;5051535;28;20110;-73
2021/05/13 00:38:57;;;;;;;55.63;30.10;;;10.10;99.90;;;;;;5033485;28;20072;-74
2021/05/13 00:41:23;;;;;;;44.83;28.58;;;9.90;99.90;;;;;;5033489;28;20075;-74
2021/05/13 00:43:49;;;;;;;31.83;24.42;;;9.90;99.90;;;;;;5051481;28;20029;-74
2021/05/13 00:46:15;;;;;;;39.28;25.45;;;9.70;99.90;;;;;;5051422;28;20013;-74
2021/05/13 00:48:41;;;;;;;30.10;22.40;;;9.80;99.90;;;;;;5033533;28;20063;-75
2021/05/13 00:51:08;;;;;;;60.15;30.70;;;9.70;99.90;;;;;;5033263;28;20033;-75
2021/05/13 00:53:34;;;;;;;34.72;24.13;;;9.70;99.90;;;;;;5051470;28;20480;-75
2021/05/13 00:55:59;;;;;;;50.97;30.05;;;9.70;99.90;;;;;;5033586;28;20040;-75
2021/05/13 00:58:27;;;;;;;46.95;27.73;;;9.80;99.90;;;;;;5033507;28;20119;-76
2021/05/13 01:03:21;;;;;;;83.22;33.80;;;9.80;99.90;;;;;;5051527;28;20032;-75
2021/05/13 01:05:47;;;;;;;40.13;26.58;;;9.80;99.90;;;;;;5051238;28;20031;-75
2021/05/13 01:08:12;;;;;;;22.77;20.30;;;9.70;99.90;;;;;;5051260;28;20032;-75
2021/05/13 01:10:39;;;;;;;35.38;25.40;;;9.70;99.90;;;;;;5051061;28;20025;-74
2021/05/13 01:13:12;;;;;;;24.10;21.60;;;9.70;99.90;;;;;;5051268;28;20032;-74
2021/05/13 01:18:13;;;;;;;29.83;23.98;;;9.70;99.90;;;;;;5051175;28;20048;-75
2021/05/13 01:20:39;;;;;;;26.60;22.80;;;9.80;99.90;;;;;;5051019;28;20029;-75
2021/05/13 01:23:07;;;;;;;23.90;20.52;;;9.70;99.90;;;;;;5033221;28;20503;-74
2021/05/13 01:25:42;;;;;;;36.28;24.08;;;9.80;99.90;;;;;;5051210;28;20057;-75
2021/05/13 01:28:07;;;;;;;25.25;22.30;;;9.80;99.90;;;;;;5051063;28;20021;-75
2021/05/13 01:30:33;;;;;;;27.90;23.30;;;9.80;99.90;;;;;;5050888;28;20136;-75
2021/05/13 01:32:59;;;;;;;23.00;20.38;;;9.80;99.90;;;;;;5033217;28;20140;-75
2021/05/13 01:35:26;;;;;;;44.90;27.70;;;9.80;99.90;;;;;;5035772;28;20056;-75
2021/05/13 01:38:12;;;;;;;28.42;23.08;;;9.60;99.90;;;;;;5054643;28;20411;-75
2021/05/13 01:40:38;;;;;;;39.53;25.98;;;9.40;99.90;;;;;;5054524;28;20415;-73
2021/05/13 01:43:04;;;;;;;24.02;20.23;;;9.30;99.90;;;;;;5054486;28;20104;-73
2021/05/13 01:45:30;;;;;;;173.93;38.42;;;9.10;99.90;;;;;;5054516;28;20025;-73
2021/05/13 01:48:02;;;;;;;169.80;36.10;;;9.10;99.90;;;;;;5054342;28;20051;-73
2021/05/13 01:50:32;;;;;;;51.47;27.13;;;9.00;99.90;;;;;;5054086;28;20357;-73
2021/05/13 01:52:59;;;;;;;155.13;36.63;;;8.90;99.90;;;;;;5056412;28;20036;-73
2021/05/13 01:55:26;;;;;;;261.75;42.97;;;8.80;99.90;;;;;;5054166;28;20103;-73
2021/05/13 01:57:52;;;;;;;32.65;22.73;;;8.90;99.90;;;;;;5054133;28;20021;-73
2021/05/13 02:00:19;;;;;;;21.15;18.63;;;9.10;99.90;;;;;;5053996;28;20036;-74
2021/05/13 02:02:45;;;;;;;23.15;20.02;;;9.20;99.90;;;;;;5054286;28;20048;-74
2021/05/13 02:05:12;;;;;;;22.05;19.52;;;9.50;99.90;;;;;;5036166;28;20483;-74
2021/05/13 02:07:38;;;;;;;36.30;23.55;;;9.50;99.90;;;;;;5036126;28;20540;-74
2021/05/13 02:10:05;;;;;;;31.52;23.38;;;9.50;99.90;;;;;;5053846;28;20029;-74
2021/05/13 02:12:30;;;;;;;31.92;23.98;;;9.40;99.90;;;;;;5053921;28;20021;-74
2021/05/13 02:14:55;;;;;;;29.77;23.08;;;9.50;99.90;;;;;;5053976;28;20032;-74
2021/05/13 02:17:21;;;;;;;29.17;21.88;;;9.40;99.90;;;;;;5035884;28;20025;-74
2021/05/13 02:19:46;;;;;;;37.67;26.13;;;9.50;99.90;;;;;;5053625;28;20420;-73
2021/05/13 02:22:12;;;;;;;41.28;26.05;;;9.50;99.90;;;;;;5053786;28;20052;-73
2021/05/13 02:24:37;;;;;;;38.72;26.58;;;9.40;99.90;;;;;;5053832;28;20029;-73
2021/05/13 02:27:03;;;;;;;26.40;21.20;;;9.30;99.90;;;;;;5053762;28;20082;-73
2021/05/13 02:29:29;;;;;;;32.08;24.65;;;9.40;99.90;;;;;;5053547;28;20100;-73
2021/05/13 02:31:55;;;;;;;42.75;28.90;;;9.30;99.90;;;;;;5022775;28;20480;-73
2021/05/13 02:34:20;;;;;;;100.40;32.15;;;9.10;99.90;;;;;;5035713;28;20025;-72
2021/05/13 02:36:46;;;;;;;66.38;30.48;;;8.90;99.90;;;;;;5053468;28;20029;-73
2021/05/13 02:39:11;;;;;;;55.88;29.02;;;8.80;99.90;;;;;;5053368;28;20422;-71
2021/05/13 02:41:38;;;;;;;37.05;25.48;;;9.00;99.90;;;;;;5035541;28;20376;-72
2021/05/13 02:44:04;;;;;;;26.30;21.85;;;9.10;99.90;;;;;;5053353;28;20029;-71
2021/05/13 02:46:30;;;;;;;21.48;18.83;;;9.20;99.90;;;;;;5052327;28;20035;-72
2021/05/13 02:48:55;;;;;;;23.02;19.08;;;9.30;99.90;;;;;;5053280;28;20020;-72
2021/05/13 02:51:21;;;;;;;32.97;22.90;;;9.40;99.90;;;;;;5035041;28;20103;-73
2021/05/13 02:53:47;;;;;;;37.78;24.25;;;9.30;99.90;;;;;;5053311;28;20025;-73
2021/05/13 02:56:12;;;;;;;23.73;20.63;;;9.20;99.90;;;;;;5053215;28;20029;-73
2021/05/13 02:58:38;;;;;;;31.00;23.25;;;9.20;99.90;;;;;;5053092;28;20064;-73
2021/05/13 03:01:24;;;;;;;25.17;20.88;;;9.30;99.90;;;;;;5052922;28;20473;-72
2021/05/13 03:03:51;;;;;;;27.50;19.20;;;9.30;99.90;;;;;;5052944;28;20078;-72
2021/05/13 03:06:16;;;;;;;28.02;20.92;;;9.40;99.90;;;;;;5035139;28;20028;-72
2021/05/13 03:08:42;;;;;;;22.00;17.02;;;9.50;99.90;;;;;;5052868;28;20025;-72
2021/05/13 03:11:09;;;;;;;40.45;23.77;;;9.50;99.90;;;;;;5052803;28;20021;-73
2021/05/13 03:13:35;;;;;;;21.60;18.98;;;9.50;99.90;;;;;;5052810;28;20484;-74
2021/05/13 03:16:01;;;;;;;56.40;27.02;;;9.40;99.90;;;;;;5035044;28;20122;-75
2021/05/13 03:18:28;;;;;;;122.57;38.28;;;9.00;99.90;;;;;;5034735;28;20479;-75
2021/05/13 03:23:50;;;;;;;35.33;24.10;;;8.70;99.90;;;;;;5052921;28;20033;-75
2021/05/13 03:26:16;;;;;;;80.47;33.25;;;8.80;99.90;;;;;;5052723;28;20063;-75
2021/05/13 03:28:42;;;;;;;26.42;20.75;;;8.80;99.90;;;;;;5039100;28;20370;-75
2021/05/13 03:31:07;;;;;;;23.48;19.65;;;8.90;99.90;;;;;;5034538;28;20025;-76
2021/05/13 03:33:33;;;;;;;27.30;20.92;;;9.00;99.90;;;;;;5034475;28;20495;-75
2021/05/13 03:35:59;;;;;;;25.52;20.92;;;9.10;99.90;;;;;;5034620;28;20029;-74
2021/05/13 03:38:24;;;;;;;29.52;21.65;;;9.20;99.90;;;;;;5052382;28;20392;-74
2021/05/13 03:40:50;;;;;;;25.63;20.02;;;9.30;99.90;;;;;;5052241;28;20037;-75
2021/05/13 03:43:16;;;;;;;22.52;18.98;;;9.20;99.90;;;;;;5034762;28;20029;-75
2021/05/13 03:45:41;;;;;;;22.58;18.88;;;9.30;99.90;;;;;;5034406;28;20025;-73
2021/05/13 03:48:07;;;;;;;21.63;18.20;;;9.40;99.90;;;;;;5034254;28;20031;-73
2021/05/13 03:50:35;;;;;;;28.60;21.95;;;9.50;99.90;;;;;;5051716;28;20025;-73
2021/05/13 03:53:02;;;;;;;56.13;27.98;;;9.30;99.90;;;;;;5034336;28;20377;-74
2021/05/13 03:55:28;;;;;;;60.42;29.48;;;9.00;99.90;;;;;;5052044;28;20458;-74
2021/05/13 03:57:56;;;;;;;40.03;25.23;;;9.00;99.90;;;;;;5051859;28;20060;-74
2021/05/13 04:00:29;;;;;;;36.20;25.55;;;9.10;99.90;;;;;;5051861;28;20079;-73
2021/05/13 04:02:55;;;;;;;43.35;26.40;;;9.10;99.90;;;;;;5051960;28;20052;-73
2021/05/13 04:05:20;;;;;;;31.58;21.83;;;9.10;99.90;;;;;;5051985;28;20021;-74
2021/05/13 04:07:48;;;;;;;39.10;26.35;;;9.00;99.90;;;;;;5051836;28;20028;-73
2021/05/13 04:10:14;;;;;;;47.78;27.63;;;9.00;99.90;;;;;;5051950;28;20056;-74
2021/05/13 04:12:40;;;;;;;46.20;27.63;;;9.00;99.90;;;;;;5051856;28;20082;-73
2021/05/13 04:15:08;;;;;;;38.50;25.20;;;9.10;99.90;;;;;;5051818;28;20108;-74
2021/05/13 04:17:33;;;;;;;34.53;24.73;;;9.00;99.90;;;;;;5033636;28;20025;-73
2021/05/13 04:19:59;;;;;;;26.35;21.02;;;9.10;99.90;;;;;;5051559;28;20122;-72
2021/05/13 04:22:24;;;;;;;35.05;24.25;;;9.20;99.90;;;;;;5051664;28;20029;-72
2021/05/13 04:24:50;;;;;;;25.70;21.60;;;9.30;99.90;;;;;;5051537;28;20048;-73
2021/05/13 04:27:15;;;;;;;22.15;18.50;;;9.40;99.90;;;;;;5033803;28;20032;-75
2021/05/13 04:29:41;;;;;;;20.63;18.38;;;9.60;99.90;;;;;;5051756;28;20025;-75
2021/05/13 04:32:06;;;;;;;23.40;19.65;;;9.70;99.90;;;;;;5051444;28;20028;-74
2021/05/13 04:34:32;;;;;;;23.58;19.33;;;9.80;99.90;;;;;;5033735;28;20021;-74
2021/05/13 04:36:57;;;;;;;31.05;23.52;;;9.80;99.90;;;;;;5051558;28;20115;-74
2021/05/13 04:39:23;;;;;;;25.98;21.05;;;9.70;99.90;;;;;;5033600;28;20095;-75
2021/05/13 04:41:51;;;;;;;29.73;22.20;;;9.40;99.90;;;;;;5051455;28;20029;-73
2021/05/13 04:44:16;;;;;;;39.40;23.48;;;9.20;99.90;;;;;;5051430;28;20032;-74
2021/05/13 04:46:42;;;;;;;33.78;24.60;;;9.20;99.90;;;;;;5033506;28;20403;-73
2021/05/13 04:51:33;;;;;;;48.67;27.90;;;9.10;99.90;;;;;;5051399;28;20025;-74
2021/05/13 04:54:00;;;;;;;42.58;27.05;;;9.00;99.90;;;;;;5051411;28;20066;-73
2021/05/13 04:56:26;;;;;;;39.67;25.20;;;9.10;99.90;;;;;;5051343;28;20024;-73
2021/05/13 04:58:52;;;;;;;43.25;27.92;;;9.20;99.90;;;;;;5051202;28;20653;-74
2021/05/13 05:01:19;;;;;;;35.22;24.73;;;9.20;99.90;;;;;;5033526;28;20025;-73
2021/05/13 05:03:45;;;;;;;38.45;25.75;;;9.30;99.90;;;;;;5033320;28;20079;-74
2021/05/13 05:06:11;;;;;;;36.53;25.65;;;9.40;99.90;;;;;;5033385;28;20067;-74
2021/05/13 05:08:38;;;;;;;24.23;20.85;;;9.30;99.90;;;;;;5051097;28;20029;-74
2021/05/13 05:11:03;;;;;;;26.50;20.42;;;9.40;99.90;;;;;;5054846;28;20025;-73
2021/05/13 05:13:30;;;;;;;33.15;23.98;;;9.50;99.90;;;;;;5054959;28;20086;-73
2021/05/13 05:15:56;;;;;;;37.47;25.48;;;9.50;99.90;;;;;;5037476;28;20411;-73
2021/05/13 05:18:24;;;;;;;34.58;24.10;;;9.40;99.90;;;;;;5054936;28;20515;-73
2021/05/13 05:20:50;;;;;;;36.15;25.17;;;9.40;99.90;;;;;;5054855;28;20524;-73
2021/05/13 05:23:17;;;;;;;35.45;25.73;;;9.30;99.90;;;;;;5054929;28;20032;-73
2021/05/13 05:25:43;;;;;;;38.30;25.77;;;9.30;99.90;;;;;;5054921;28;20017;-72
2021/05/13 05:28:09;;;;;;;34.17;23.63;;;9.20;99.90;;;;;;5054857;28;20511;-73
2021/05/13 05:30:36;;;;;;;38.00;27.50;;;9.10;99.90;;;;;;5036673;28;20025;-73
2021/05/13 05:33:03;;;;;;;36.85;27.13;;;9.30;99.90;;;;;;5054702;28;20021;-73
2021/05/13 05:35:29;;;;;;;38.30;28.63;;;9.40;99.90;;;;;;5054754;28;20029;-73
2021/05/13 05:37:55;;;;;;;40.17;28.13;;;9.40;99.90;;;;;;5054507;28;20178;-73
2021/05/13 05:40:21;;;;;;;49.28;35.97;;;9.30;99.90;;;;;;5054443;28;20490;-72
2021/05/13 05:42:47;;;;;;;44.17;30.48;;;9.40;99.90;;;;;;5036642;28;20036;-73
2021/05/13 05:45:14;;;;;;;43.95;33.15;;;9.40;99.90;;;;;;5054593;28;20029;-73
2021/05/13 05:47:40;;;;;;;42.92;31.38;;;9.50;99.90;;;;;;5054395;28;20496;-73
2021/05/13 05:50:06;;;;;;;35.08;26.67;;;9.60;99.90;;;;;;5054230;28;20101;-73
2021/05/13 05:52:32;;;;;;;31.15;23.77;;;9.60;99.90;;;;;;5053963;28;20094;-73
2021/05/13 05:54:57;;;;;;;30.15;24.35;;;9.60;99.90;;;;;;5054075;28;20033;-73
2021/05/13 05:57:23;;;;;;;37.28;27.00;;;9.70;99.90;;;;;;5054009;28;20020;-73
2021/05/13 05:59:48;;;;;;;31.73;23.95;;;9.70;99.90;;;;;;5036125;28;20109;-73
2021/05/13 06:02:14;;;;;;;32.97;24.70;;;9.80;99.90;;;;;;5054114;28;20048;-73
2021/05/13 06:04:39;;;;;;;31.30;23.67;;;9.70;99.90;;;;;;5054124;28;20373;-72
2021/05/13 06:07:06;;;;;;;34.63;26.10;;;9.80;99.90;;;;;;5053895;28;20471;-72
2021/05/13 06:09:32;;;;;;;33.00;24.77;;;9.90;99.90;;;;;;5053879;28;20025;-72
2021/05/13 06:11:58;;;;;;;25.38;22.15;;;9.90;99.90;;;;;;5054125;28;20025;-73
2021/05/13 06:14:23;;;;;;;23.60;19.42;;;9.90;99.90;;;;;;5053997;28;20052;-72
2021/05/13 06:16:50;;;;;;;23.80;20.02;;;10.20;99.90;;;;;;5053881;28;20262;-72
2021/05/13 06:19:18;;;;;;;32.88;24.02;;;10.30;99.90;;;;;;5053632;28;20032;-72
2021/05/13 06:21:43;;;;;;;32.72;24.33;;;10.40;99.90;;;;;;5054137;28;20503;-74
2021/05/13 06:24:11;;;;;;;30.80;22.83;;;10.00;99.90;;;;;;5053761;28;20025;-74
2021/05/13 06:26:38;;;;;;;29.95;22.45;;;9.80;99.90;;;;;;5054191;28;20021;-74
2021/05/13 06:29:07;;;;;;;31.15;23.13;;;9.80;99.90;;;;;;5055432;28;20506;-74
2021/05/13 06:31:34;;;;;;;31.48;24.10;;;9.90;99.90;;;;;;5061674;28;20472;-74
2021/05/13 06:34:00;;;;;;;34.20;25.58;;;9.90;99.90;;;;;;5039688;28;20120;-74
2021/05/13 06:36:25;;;;;;;32.90;24.38;;;10.10;99.90;;;;;;5053523;28;20159;-74
2021/05/13 06:38:51;;;;;;;30.17;24.17;;;10.20;99.90;;;;;;5058197;28;20364;-75
2021/05/13 06:41:16;;;;;;;26.63;21.98;;;10.40;99.90;;;;;;5059622;28;20036;-73
2021/05/13 06:43:43;;;;;;;29.60;23.27;;;10.50;99.90;;;;;;5053388;28;20040;-73
2021/05/13 06:46:10;;;;;;;30.02;23.15;;;10.60;99.90;;;;;;5053418;28;20095;-73
2021/05/13 06:48:39;;;;;;;27.70;22.52;;;10.50;99.90;;;;;;5053272;28;20395;-73
2021/05/13 06:51:05;;;;;;;25.88;22.77;;;10.30;99.90;;;;;;5052902;28;20028;-73
2021/05/13 06:53:30;;;;;;;23.20;20.60;;;10.20;99.90;;;;;;5035379;28;20082;-73
2021/05/13 06:55:56;;;;;;;22.45;17.75;;;10.30;99.90;;;;;;5052949;28;20032;-73
2021/05/13 06:58:22;;;;;;;22.38;18.08;;;10.60;99.90;;;;;;5053042;28;20025;-73
2021/05/13 07:00:49;;;;;;;23.42;19.63;;;10.90;99.90;;;;;;5068075;28;20029;-72
2021/05/13 07:03:15;;;;;;;21.65;19.38;;;10.80;99.90;;;;;;5052955;28;20040;-72
2021/05/13 07:05:42;;;;;;;23.60;19.15;;;10.60;99.90;;;;;;5052778;28;20025;-72
2021/05/13 07:08:09;;;;;;;21.48;19.08;;;10.50;99.90;;;;;;5053102;28;20100;-73
2021/05/13 07:10:36;;;;;;;26.52;21.55;;;10.40;99.90;;;;;;5052773;28;20044;-73
2021/05/13 07:13:01;;;;;;;23.52;18.77;;;10.60;99.90;;;;;;5052735;28;20061;-72
2021/05/13 07:15:27;;;;;;;25.85;20.10;;;10.70;99.90;;;;;;5052830;28;20053;-74
2021/05/13 07:17:52;;;;;;;26.63;21.33;;;10.90;99.90;;;;;;5052719;28;20024;-73
2021/05/13 07:20:19;;;;;;;21.48;18.58;;;11.10;99.90;;;;;;5052574;28;20499;-74
2021/05/13 07:22:45;;;;;;;26.55;21.40;;;11.10;99.90;;;;;;5034794;28;20029;-71
2021/05/13 07:25:11;;;;;;;26.75;21.23;;;10.90;99.90;;;;;;5052596;28;20020;-73
2021/05/13 07:27:37;;;;;;;27.33;21.42;;;10.90;99.90;;;;;;5034607;28;20562;-73
2021/05/13 07:30:03;;;;;;;26.27;22.60;;;10.80;99.90;;;;;;5052069;28;20503;-74
2021/05/13 07:32:28;;;;;;;24.38;20.80;;;11.00;99.90;;;;;;5033889;28;20021;-73
2021/05/13 07:34:54;;;;;;;28.17;21.60;;;11.00;99.90;;;;;;5052464;28;20025;-71
2021/05/13 07:37:21;;;;;;;20.27;17.92;;;11.00;99.90;;;;;;5052197;28;20029;-73
2021/05/13 07:39:47;;;;;;;17.73;15.82;;;10.80;99.90;;;;;;5033814;28;20059;-73
2021/05/13 07:42:12;;;;;;;19.70;15.50;;;11.10;99.90;;;;;;5051942;28;20021;-70
2021/05/13 07:44:38;;;;;;;18.55;16.38;;;11.10;99.90;;;;;;5052104;28;20025;-70
2021/05/13 07:47:04;;;;;;;17.55;14.88;;;11.20;99.90;;;;;;5052087;28;20096;-71
2021/05/13 07:49:29;;;;;;;18.35;15.55;;;11.30;99.90;;;;;;5033905;28;20045;-70
2021/05/13 07:51:55;;;;;;;20.15;16.05;;;11.30;99.90;;;;;;5051992;28;20111;-72
2021/05/13 07:54:22;;;;;;;18.48;16.17;;;11.20;99.90;;;;;;5034307;28;20025;-74
2021/05/13 07:56:47;;;;;;;18.50;15.75;;;11.30;99.90;;;;;;5051920;28;20039;-74
2021/05/13 07:59:13;;;;;;;18.45;13.60;;;11.40;99.90;;;;;;5051977;28;20028;-74
2021/05/13 08:01:39;;;;;;;18.08;13.55;;;11.30;99.90;;;;;;5034939;28;20407;-74
2021/05/13 08:04:04;;;;;;;14.95;13.45;;;11.40;99.90;;;;;;5052167;28;20155;-73
2021/05/13 08:06:30;;;;;;;13.90;11.60;;;11.60;99.90;;;;;;5051946;28;20028;-73
2021/05/13 08:08:55;;;;;;;14.57;11.80;;;11.60;99.90;;;;;;5033984;28;20028;-73
2021/05/13 08:11:21;;;;;;;13.07;11.40;;;11.60;99.90;;;;;;5051711;28;20025;-73
2021/05/13 08:13:47;;;;;;;15.68;11.38;;;11.60;99.90;;;;;;5033729;28;20431;-73
2021/05/13 08:16:12;;;;;;;15.20;11.32;;;11.70;99.90;;;;;;5051844;28;20039;-73
2021/05/13 08:18:38;;;;;;;13.52;12.20;;;11.60;99.90;;;;;;5033659;28;20037;-73
2021/05/13 08:21:04;;;;;;;13.68;12.00;;;11.70;99.90;;;;;;5051475;28;20033;-73
2021/05/13 08:23:29;;;;;;;12.63;11.20;;;11.60;99.90;;;;;;5033847;28;20033;-73
2021/05/13 08:25:55;;;;;;;12.15;10.85;;;11.50;99.90;;;;;;5051088;28;20515;-73
2021/05/13 08:28:20;;;;;;;12.88;10.82;;;11.60;99.90;;;;;;5051422;28;20108;-73
2021/05/13 08:30:49;;;;;;;11.98;10.48;;;11.60;99.90;;;;;;5051358;28;20036;-73
2021/05/13 08:33:15;;;;;;;14.02;11.85;;;11.70;99.90;;;;;;5051482;28;20025;-73
2021/05/13 08:35:40;;;;;;;14.40;11.30;;;11.60;99.90;;;;;;5033702;28;20561;-74
2021/05/13 08:38:06;;;;;;;13.60;11.48;;;11.60;99.90;;;;;;5051443;28;20546;-73
2021/05/13 08:40:32;;;;;;;14.77;12.70;;;11.50;99.90;;;;;;5051362;28;20029;-73
2021/05/13 08:42:59;;;;;;;14.30;12.68;;;11.60;99.90;;;;;;5033437;28;20025;-73
2021/05/13 08:45:25;;;;;;;15.60;12.02;;;11.50;99.90;;;;;;5054514;28;20099;-74
2021/05/13 08:47:52;;;;;;;13.40;11.32;;;11.50;99.90;;;;;;5055575;28;20055;-73
2021/05/13 08:50:19;;;;;;;15.50;11.13;;;11.50;99.90;;;;;;5055418;28;20074;-72
2021/05/13 08:52:46;;;;;;;12.07;10.80;;;11.30;99.90;;;;;;5056051;28;20115;-77
2021/05/13 08:55:12;;;;;;;12.32;11.07;;;11.20;99.90;;;;;;5038112;28;20032;-76
2021/05/13 08:57:38;;;;;;;12.27;10.70;;;11.40;99.90;;;;;;5037600;28;20033;-75
2021/05/13 09:00:06;;;;;;;17.83;12.70;;;11.40;99.90;;;;;;5055299;28;20101;-74
2021/05/13 09:02:33;;;;;;;13.75;12.10;;;11.50;99.90;;;;;;5055279;28;20025;-73
2021/05/13 09:05:00;;;;;;;16.35;14.38;;;11.50;99.90;;;;;;5037495;28;20021;-73
2021/05/13 09:07:29;;;;;;;15.45;12.82;;;11.50;99.90;;;;;;5037314;28;20159;-74
2021/05/13 09:10:12;;;;;;;12.25;10.45;;;11.50;99.90;;;;;;5054953;28;20021;-74
2021/05/13 09:12:49;;;;;;;12.95;11.57;;;11.40;99.90;;;;;;5043764;28;20473;-74
2021/05/13 09:15:20;;;;;;;13.60;10.82;;;11.40;99.90;;;;;;5037247;28;20551;-73
2021/05/13 09:17:49;;;;;;;16.08;11.60;;;11.60;99.90;;;;;;5054854;28;20025;-73
2021/05/13 09:20:24;;;;;;;14.25;12.18;;;11.60;99.90;;;;;;5054708;28;20074;-73
2021/05/13 09:22:50;;;;;;;13.93;10.85;;;11.60;99.90;;;;;;5054916;28;20554;-73
2021/05/13 09:25:15;;;;;;;15.35;11.98;;;11.60;99.90;;;;;;5054715;28;20033;-73
2021/05/13 09:27:42;;;;;;;14.75;10.98;;;11.60;99.90;;;;;;5054709;28;20100;-73
2021/05/13 09:30:24;;;;;;;13.60;11.30;;;11.60;99.90;;;;;;5054504;28;20048;-73
2021/05/13 09:32:55;;;;;;;13.48;11.85;;;11.30;99.90;;;;;;5036920;28;20078;-73
2021/05/13 09:35:23;;;;;;;13.50;11.40;;;11.40;99.90;;;;;;5055934;28;20033;-73
2021/05/13 09:37:54;;;;;;;13.38;11.85;;;11.40;99.90;;;;;;5055664;28;20024;-73
2021/05/13 09:40:31;;;;;;;12.60;10.60;;;11.60;99.90;;;;;;5054546;28;20029;-72
2021/05/13 09:43:21;;;;;;;15.68;12.68;;;11.50;99.90;;;;;;5054518;28;20021;-73
2021/05/13 09:45:56;;;;;;;17.02;13.27;;;11.70;99.90;;;;;;5054626;28;20024;-72
2021/05/13 09:48:39;;;;;;;15.23;12.73;;;11.70;99.90;;;;;;5054246;28;20032;-73
2021/05/13 09:51:24;;;;;;;18.77;14.50;;;11.80;99.90;;;;;;5054203;28;20314;-73
2021/05/13 09:54:17;;;;;;;16.00;13.23;;;11.90;99.90;;;;;;5069812;28;20388;-73
2021/05/13 09:56:50;;;;;;;13.50;12.00;;;12.30;99.90;;;;;;5035985;28;20391;-73
2021/05/13 09:59:27;;;;;;;13.77;11.73;;;12.30;99.90;;;;;;5054089;28;20017;-73
2021/05/13 10:02:07;;;;;;;13.63;11.95;;;12.50;99.90;;;;;;5054343;28;20078;-73
2021/05/13 10:04:33;;;;;;;14.35;12.63;;;12.60;99.90;;;;;;5036272;28;20053;-73
2021/05/13 10:06:58;;;;;;;16.17;12.55;;;12.70;99.90;;;;;;5035865;28;20048;-73
2021/05/13 10:09:24;;;;;;;13.60;11.93;;;12.60;99.90;;;;;;5036136;28;20027;-73
2021/05/13 10:11:54;;;;;;;12.07;10.77;;;12.50;99.90;;;;;;5054071;28;20044;-73
2021/05/13 10:14:25;;;;;;;14.18;11.18;;;12.50;99.90;;;;;;5054054;28;20104;-72
2021/05/13 10:16:53;;;;;;;12.63;10.98;;;12.60;99.90;;;;;;5054018;28;20025;-72
2021/05/13 10:19:26;;;;;;;14.57;12.02;;;12.80;99.90;;;;;;5053489;28;20665;-73
2021/05/13 10:21:54;;;;;;;13.82;12.20;;;12.70;99.90;;;;;;5034660;28;20111;-73
2021/05/13 10:24:19;;;;;;;14.05;11.57;;;12.80;99.90;;;;;;5054492;28;20025;-73
2021/05/13 10:26:49;;;;;;;13.68;12.20;;;13.10;99.90;;;;;;5053392;28;20070;-73
2021/05/13 10:32:10;;;;;;;11.90;9.77;;;13.40;99.90;;;;;;5053333;28;20024;-72
2021/05/13 10:34:41;;;;;;;12.27;10.98;;;13.80;99.90;;;;;;5030754;28;20029;-72
2021/05/13 10:37:32;;;;;;;14.02;11.50;;;13.70;99.90;;;;;;5052935;28;20025;-73
2021/05/13 10:40:25;;;;;;;12.98;11.25;;;13.30;99.90;;;;;;5053081;28;20032;-73
2021/05/13 10:43:05;;;;;;;16.25;10.90;;;13.20;99.90;;;;;;5053011;28;20116;-73
2021/05/13 10:45:32;;;;;;;11.98;10.77;;;12.90;99.90;;;;;;5036878;28;20484;-73
2021/05/13 10:48:18;;;;;;;14.02;11.82;;;13.00;99.90;;;;;;5035020;28;20021;-73
2021/05/13 10:50:53;;;;;;;13.98;10.68;;;13.30;99.90;;;;;;5035524;28;20075;-73
2021/05/13 10:53:34;;;;;;;11.85;9.93;;;13.60;99.90;;;;;;5038047;28;20484;-73
2021/05/13 10:56:22;;;;;;;11.18;10.00;;;13.60;99.90;;;;;;5068105;28;20111;-73
2021/05/13 10:58:59;;;;;;;11.63;10.13;;;13.60;99.90;;;;;;5034627;28;20377;-73
2021/05/13 11:01:45;;;;;;;11.50;9.15;;;13.70;99.90;;;;;;5052994;28;20539;-73
2021/05/13 11:04:23;;;;;;;11.50;9.57;;;13.90;99.90;;;;;;5051865;28;20092;-73
2021/05/13 11:07:01;;;;;;;9.98;8.98;;;14.60;99.90;;;;;;5051857;28;20158;-73
2021/05/13 11:09:53;;;;;;;9.88;8.88;;;14.80;99.90;;;;;;5037421;28;20104;-73
2021/05/13 11:12:21;;;;;;;10.00;9.00;;;14.60;99.90;;;;;;5027550;28;20431;-73
2021/05/13 11:17:40;;;;;;;9.15;7.97;;;14.80;99.90;;;;;;5045940;28;20025;-72
2021/05/13 11:20:40;;;;;;;8.02;6.93;;;14.90;99.90;;;;;;5046247;28;20392;-73
2021/05/13 11:23:07;;;;;;;8.25;6.55;;;15.20;99.90;;;;;;5052536;28;20078;-73
2021/05/13 11:25:52;;;;;;;10.43;7.00;;;14.90;99.90;;;;;;5052698;28;20024;-73
2021/05/13 11:28:25;;;;;;;10.25;6.75;;;14.70;99.90;;;;;;5048506;28;20021;-73
2021/05/13 11:30:56;;;;;;;9.60;6.70;;;14.50;99.90;;;;;;5052345;28;20021;-74
2021/05/13 11:33:22;;;;;;;7.50;6.40;;;14.50;99.90;;;;;;5052445;28;20480;-73
2021/05/13 11:35:48;;;;;;;11.40;6.57;;;14.80;99.90;;;;;;5052384;28;20078;-73
2021/05/13 11:38:24;;;;;;;6.95;6.03;;;14.90;99.90;;;;;;5044797;28;20025;-73
2021/05/13 11:40:50;;;;;;;;;;;15.10;99.90;;;;;;5052515;28;20100;-73
2021/05/13 11:43:33;;;;;;;9.02;6.22;;;15.10;99.90;;;;;;5041566;28;19908;-73
2021/05/13 11:46:02;;;;;;;8.35;6.40;;;15.40;99.90;;;;;;5035750;28;20109;-73
2021/05/13 11:48:35;;;;;;;10.18;5.72;;;15.50;99.90;;;;;;5051903;28;20025;-73
2021/05/13 11:51:04;;;;;;;7.95;6.10;;;15.80;99.90;;;;;;5034824;28;20033;-76
2021/05/13 11:53:32;;;;;;;11.25;5.80;;;15.80;99.90;;;;;;5042090;28;20440;-75
2021/05/13 11:55:59;;;;;;;6.90;5.47;;;15.70;99.90;;;;;;5035775;28;20456;-74
2021/05/13 11:58:47;;;;;;;7.00;5.28;;;15.90;99.90;;;;;;5051445;28;20075;-75
2021/05/13 12:01:26;;;;;;;9.23;5.63;;;15.60;99.90;;;;;;5020420;28;20025;-74
2021/05/13 12:03:55;;;;;;;9.02;6.07;;;15.20;99.90;;;;;;5051779;28;20096;-75
2021/05/13 12:06:21;;;;;;;8.18;6.03;;;15.20;99.90;;;;;;5049968;28;20702;-75
2021/05/13 12:08:47;;;;;;;10.13;6.20;;;15.40;99.90;;;;;;5051606;28;20039;-75
2021/05/13 12:11:23;;;;;;;7.00;5.00;;;15.70;99.90;;;;;;5051926;28;20028;-75
2021/05/13 12:13:55;;;;;;;9.20;4.60;;;16.10;99.90;;;;;;5034245;28;20449;-73
2021/05/13 12:16:22;;;;;;;10.50;5.00;;;15.60;99.90;;;;;;5051799;28;20565;-75
2021/05/13 12:18:52;;;;;;;7.53;5.30;;;15.40;99.90;;;;;;5051604;28;20037;-75
2021/05/13 12:21:18;;;;;;;9.05;5.25;;;15.70;99.90;;;;;;5034148;28;20031;-75
2021/05/13 12:23:46;;;;;;;5.82;4.80;;;15.30;99.90;;;;;;5033784;28;20104;-75
2021/05/13 12:26:18;;;;;;;8.60;4.38;;;15.50;99.90;;;;;;5051745;28;20561;-75
2021/05/13 12:28:44;;;;;;;6.22;4.45;;;15.50;99.90;;;;;;5038639;28;20033;-75
2021/05/13 12:31:22;;;;;;;6.10;4.40;;;15.70;99.90;;;;;;5051393;28;20075;-75
2021/05/13 12:33:47;;;;;;;6.45;4.82;;;15.70;99.90;;;;;;5051636;28;20044;-75
2021/05/13 12:36:13;;;;;;;6.22;4.85;;;15.50;99.90;;;;;;5051465;28;20017;-75
2021/05/13 12:38:43;;;;;;;7.00;4.88;;;15.40;99.90;;;;;;5033573;28;20480;-75
2021/05/13 12:41:17;;;;;;;7.75;4.72;;;15.30;99.90;;;;;;5033425;28;20037;-75
2021/05/13 12:43:43;;;;;;;8.63;4.68;;;15.50;99.90;;;;;;5051553;28;20032;-74
2021/05/13 12:46:23;;;;;;;6.53;4.65;;;15.50;99.90;;;;;;5051546;28;20032;-74
2021/05/13 12:48:51;;;;;;;7.05;5.07;;;15.40;99.90;;;;;;5051444;28;20380;-73
2021/05/13 12:51:23;;;;;;;8.35;4.95;;;15.30;99.90;;;;;;5033297;28;20083;-74
2021/05/13 12:53:56;;;;;;;6.97;4.60;;;15.30;99.90;;;;;;5051527;28;20350;-74
2021/05/13 12:56:31;;;;;;;6.97;4.80;;;15.30;99.90;;;;;;5051476;28;20128;-74